Tiempo atmosférico en la estación meteorológica de A Coruña Aeropuerto, A Coruña (98 m.)

Fecha
DESCASC
Temp. máxima en grados centígrados (hora)
DESCASC
Temp. mínima en grados centígrados (hora)
DESCASC
Temp. media en grados centígrados
DESCASC
Racha de viento máxima en m/sg (hora)
DESCASC
Velocidad máxima media en intervalos de 10 minutos(hora)
DESCASC
Precipitaciones diarias en mm
DESCASC
Precipitaciones de 00:00 a 06:00 en mm
DESCASC
Precipitaciones de 06:00 a 12:00 en mm
DESCASC
Precipitaciones de 12:00 a 18:00 en mm
DESCASC
Precipitaciones de 18:00 a 24:00 en mm
DESCASC
24-09-2017 19.6 (14:30) 12.8 (04:20) 16.2 12.5 (15:30) 8.33 (15:10) 0.8 0 0.4 0.3 0.1
23-09-2017 23.4 (16:40) 10.1 (05:10) 16.8 8.89 (15:50) 5.28 (13:10) 0 0 0 0 0
22-09-2017 20.8 (16:00) 12.4 (00:30) 16.6 7.78 (14:50) 4.72 (14:50) 0 0 0 0 0
21-09-2017 17.6 (16:00) 13.1 (00:00) 15.4 9.72 (12:00) 6.11 (09:50) 10.5 0 9.5 1 0
20-09-2017 20.9 (15:30) 9.3 (00:00) 15.1 5.83 (07:00) 3.89 (23:50) 0 0 0 0 0
19-09-2017 19.9 (15:20) 12.5 (00:00) 16.2 7.22 (17:00) 4.17 (17:00) 0 0 0 0 0
18-09-2017 20.1 (16:30) 14.2 (00:00) 17.2 14.44 (01:40) 10.28 (02:00) 2.4 2.1 0 0.3 0
17-09-2017 19.4 (14:50) 11.7 (00:00) 15.5 9.72 (17:20) 6.39 (17:20) 3.6 0 0 0 3.6
16-09-2017 18.2 (16:00) 8.6 (00:00) 13.4 7.78 (16:10) 4.72 (16:10) 2.3 2.1 0.2 0 0
15-09-2017 17.8 (14:10) 8.5 (00:00) 13.1 12.78 (14:40) 7.22 (14:40) 1 0.9 0 0 0.1
14-09-2017 18.8 (02:10) 12.7 (00:00) 15.7 12.5 (03:30) 6.67 (03:30) 2.9 2.9 0 0 0
13-09-2017 23 (15:20) 18 (00:00) 20.5 10.83 (16:30) 6.39 (16:30) 0 0 0 0 0
12-09-2017 23.2 (15:40) 15.4 (00:00) 19.3 10.83 (17:20) 6.39 (17:20) 0.9 0.1 0.7 0.1 0
11-09-2017 20.8 (15:50) 15.4 (00:00) 18.1 10.83 (17:20) 6.94 (16:50) 2.3 1.5 0 0 0.8
10-09-2017 19.9 (15:30) 12.3 (00:00) 16.1 9.72 (18:40) 5.28 (23:00) 1.1 0.4 0 0 0.7
09-09-2017 19.1 (16:50) 14.1 (00:00) 16.6 11.67 (14:40) 7.5 (18:10) 6.6 3.8 2.5 0.1 0.2
08-09-2017 -- (--) -- (--) -- -- (--) -- (--) -- -- -- 0 1
07-09-2017 -- (--) -- (--) -- -- (--) -- (--) -- 0 -- -- --
06-09-2017 21.2 (16:50) 14.1 (00:00) 17.7 11.67 (15:50) 6.94 (15:50) 0 0 0 0 0
05-09-2017 23.8 (13:30) 17.6 (00:00) 20.7 9.17 (18:40) 5.83 (19:50) 0 0 0 0 0
04-09-2017 21.3 (15:30) 17.7 (00:00) 19.5 6.11 (01:50) 3.61 (14:50) 0.4 0.3 0.1 0 0
03-09-2017 24.4 (14:50) 11.8 (00:00) 18.1 12.5 (16:50) 6.39 (16:50) 0.9 0 0 0 0.9
02-09-2017 23.2 (14:00) 8.3 (00:00) 15.8 7.22 (13:40) 5 (18:00) 0 0 0 0 0
01-09-2017 20.5 (17:50) 9.1 (00:00) 14.8 13.33 (15:30) 6.67 (16:50) 0 0 0 0 0
31-08-2017 19.9 (15:30) 13.4 (00:00) 16.6 12.5 (16:50) 7.78 (18:00) 0 0 0 0 0
30-08-2017 18.5 (03:00) 15.8 (00:00) 17.2 8.89 (17:10) 5.56 (17:10) 0.7 0 0.6 0.1 0
29-08-2017 20.6 (15:50) 18.1 (00:00) 19.4 11.39 (18:30) 6.11 (17:50) 2.5 0 1.8 0.7 0
28-08-2017 23.4 (16:50) 15.6 (00:00) 19.5 9.72 (18:20) 5.56 (18:20) 0 0 0 0 0
27-08-2017 24.9 (15:20) 13.9 (00:00) 19.4 11.39 (16:30) 7.78 (16:30) 7.9 0 0 0 7.9
26-08-2017 25.3 (19:50) 15.4 (00:00) 20.3 8.33 (18:00) 6.39 (18:20) 0 0 0 0 0

Gráficas

Temp. máximas Temp. mínimas Temp. medias Precipitaciones Rachas de viento máximas Velocidades máximas media en intervalos de 10 minutos

Datos horarios

Fecha y hora oficial Temperatura (ºC) Velocidad del viento (km/h) Dirección del viento Racha (km/h) Dirección de racha Precipitación (mm) Presión (hPa) Tendencia (hPa) Humedad (%)
2017-09-24 23:00:00 16.8 7 Sudoeste 26 Sudoeste 0.1 1009.7 1.5 86
2017-09-24 22:00:00 17.1 14 Sur 22 Sudoeste 0 1009.1 1.1 82
2017-09-24 21:00:00 17.1 12 Sur 22 Sur 0 1008.6 0.7 81
2017-09-24 20:00:00 18.4 15 Sudoeste 24 Sur 0 1008.2 0.5 76
2017-09-24 19:00:00 18.9 9 Sur 26 Sudoeste 0 1008 0.5 75
2017-09-24 18:00:00 18.5 11 Sur 24 Sur 0 1007.9 0.7 78
2017-09-24 17:00:00 18.5 17 Sur 32 Sudoeste 0 1007.7 0.6 78
2017-09-24 16:00:00 18.2 23 Sudoeste 45 Sudoeste 0 1007.5 0.6 77
2017-09-24 15:00:00 18.8 25 Sudoeste 41 Sudoeste 0 1007.2 0.1 75
2017-09-24 14:00:00 18.3 22 Sudoeste 35 Sudoeste 0 1007.1 0.4 76
2017-09-24 13:00:00 17.7 20 Sudoeste 35 Sudoeste 0.3 1006.9 0.3 77
2017-09-24 12:00:00 16.8 5 Oeste 26 Sur 0 1007.1 0.8 74
2017-09-24 11:00:00 15.5 9 Sur 24 Sudeste 0.4 1006.7 0.7 77
2017-09-24 10:00:00 16 3 Sur 28 Sur 0 1006.6 0.7 70
2017-09-24 09:00:00 15.6 13 Sur 22 Sur 0 1006.3 0 73
2017-09-24 08:00:00 15.1 12 Sudeste 18 Sudeste 0 1006 -0.6 77
2017-09-24 07:00:00 14.9 9 Sur 32 Sudeste 0 1005.9 -0.8 79
2017-09-24 06:00:00 14.3 8 Sudeste 13 Sudeste 0 1006.3 -1 84
2017-09-24 05:00:00 13.3 0 Calma 8 Noroeste 0 1006.6 -0.5 89
2017-09-24 04:00:00 13.2 0 Calma 5 Sudeste 0 1006.7 -0.7 88
2017-09-24 03:00:00 13.2 2 Norte 11 Sudeste 0 1007.3 -0.5 87
2017-09-24 02:00:00 14.1 6 Sudeste 17 Sudeste 0 1007.1 -0.3 82
2017-09-24 01:00:00 14.2 7 Sur 13 Sudeste 0 1007.4 0.3 81
2017-09-24 00:00:00 15 5 Sudeste 8 Sudeste 0 1007.8 0.6 74
2017-09-23 23:00:00 14.9 2 Este 21 Sudeste 0 1007.4 0.7 71
2017-09-23 22:00:00 15.8 5 Sur 18 Oeste 0 1007.1 0.7 63
2017-09-23 21:00:00 17.5 5 Sur 22 Sudeste 0 1007.2 0.7 56
2017-09-23 20:00:00 19.9 12 Sudoeste 28 Sudoeste 0 1006.7 0 50
2017-09-23 19:00:00 20.3 13 Sur 26 Sudoeste 0 1006.4 -0.6 60
2017-09-23 18:00:00 21.6 17 Sur 28 Sudoeste 0 1006.5 -0.1 46
2017-09-23 17:00:00 23.2 11 Sudoeste 26 Sudoeste 0 1006.7 0.4 44
2017-09-23 16:00:00 21.9 14 Oeste 32 Noroeste 0 1007 0.6 52
2017-09-23 15:00:00 20.7 18 Sudoeste 26 Sudoeste 0 1006.6 0.2 61
2017-09-23 14:00:00 20 15 Sur 26 Sudoeste 0 1006.3 0.2 66
2017-09-23 13:00:00 19.9 18 Sur 28 Sur 0 1006.4 1 67
2017-09-23 12:00:00 18.7 5 Nordeste 15 Este 0 1006.4 1.5 74
2017-09-23 11:00:00 18 6 Sur 15 Sur 0 1006.1 1.9 78
2017-09-23 10:00:00 14.1 12 Sur 18 Sur 0 1005.4 1.5 88
2017-09-23 09:00:00 13 12 Sur 17 Sur 0 1004.9 1.4 91
2017-09-23 08:00:00 11.4 10 Sur 15 Sur 0 1004.2 0.3 96
2017-09-23 07:00:00 11.4 4 Sudeste 15 Sudeste 0 1003.9 -0.4 97
2017-09-23 06:00:00 10.7 5 Sur 11 Sur 0 1003.5 -1.8 98
2017-09-23 05:00:00 10.9 6 Sur 15 Sur 0 1003.9 -1.8 98
2017-09-23 04:00:00 11.3 11 Sur 15 Sur 0 1004.3 -2.1 97
2017-09-23 03:00:00 11.9 6 Sur 11 Sur 0 1005.3 -1.7 97
2017-09-23 02:00:00 13 2 Sur 4 Sur 0 1005.7 -1.4 95
2017-09-23 01:00:00 13.6 0 Calma 8 Sur 0 1006.4 -1 94
2017-09-23 00:00:00 14.5 0 Calma 13 Sudeste 0 1007 -0.2 88
2017-09-22 23:00:00 15.4 3 Sudoeste 21 Este 0 1007.1 0.1 87
2017-09-22 22:00:00 16.6 2 Sudeste 15 Norte 0 1007.4 0.1 82
2017-09-22 21:00:00 17.6 7 Norte 15 Norte 0 1007.2 -0.3 77
2017-09-22 20:00:00 19.5 5 Norte 21 Nordeste 0 1007 -1 70
2017-09-22 19:00:00 20.5 8 Norte 24 Nordeste 0 1007.3 -0.9 67
2017-09-22 18:00:00 20.3 13 Norte 26 Norte 0 1007.5 -1.6 66
2017-09-22 17:00:00 20.4 13 Norte 24 Norte 0 1008 -1.6 66
2017-09-22 16:00:00 20.7 12 Nordeste 26 Norte 0 1008.2 -1.8 64
2017-09-22 15:00:00 19.4 14 Norte 28 Norte 0 1009.1 -1 67
2017-09-22 14:00:00 19.8 11 Norte 22 Norte 0 1009.6 -0.7 67
2017-09-22 13:00:00 18.3 13 Norte 21 Norte 0 1010 -0.1 71
2017-09-22 12:00:00 17.8 9 Norte 21 Norte 0 1010.1 0.2 74
2017-09-22 11:00:00 16.6 8 Norte 17 Norte 0 1010.3 0.4 80
2017-09-22 10:00:00 15.6 7 Norte 17 Norte 0 1010.1 0.5 84
2017-09-22 09:00:00 15 5 Norte 15 Norte 0 1009.9 0.1 86
2017-09-22 08:00:00 14.7 6 Norte 15 Norte 0 1009.9 -0.1 86
2017-09-22 07:00:00 14.6 5 Norte 17 Nordeste 0 1009.6 -0.8 86
2017-09-22 06:00:00 14.3 5 Norte 13 Norte 0 1009.8 -0.9 83
2017-09-22 05:00:00 14 3 Norte 8 Norte 0 1010 -0.5 82
2017-09-22 04:00:00 14.3 4 Norte 11 Norte 0 1010.4 -0.2 80
2017-09-22 03:00:00 13.9 5 Norte 8 Noroeste 0 1010.7 0.1 82
2017-09-22 02:00:00 13.3 5 Norte 11 Norte 0 1010.5 -0.3 82
2017-09-22 01:00:00 12.9 6 Noroeste 11 Noroeste 0 1010.6 0 82
2017-09-22 00:00:00 13.8 0 Calma 5 Nordeste 0 1010.6 0.4 78
2017-09-21 23:00:00 14.7 3 Norte 13 Norte 0 1010.8 1 75
2017-09-21 22:00:00 14.9 5 Norte 17 Nordeste 0 1010.6 1 74
2017-09-21 21:00:00 15.6 10 Norte 26 Nordeste 0 1010.2 0.8 72
2017-09-21 20:00:00 16.7 16 Nordeste 32 Nordeste 0 1009.8 0.6 71
2017-09-21 19:00:00 17.1 15 Norte 32 Norte 0 1009.6 0.7 73
2017-09-21 18:00:00 17.2 15 Norte 32 Norte 0 1009.4 0.4 73
2017-09-21 17:00:00 17.2 15 Norte 30 Norte 0 1009.2 0.2 71
2017-09-21 16:00:00 17.4 12 Norte 22 Norte 0 1008.9 0 76
2017-09-21 15:00:00 15.8 9 Norte 18 Norte 0 1009 0.8 88
2017-09-21 14:00:00 15.4 4 Noroeste 18 Nordeste 0.2 1009 1.4 90
2017-09-21 13:00:00 14.9 9 Noroeste 26 Norte 0.8 1008.9 1.7 96
2017-09-21 12:00:00 14.5 20 Norte 35 Norte 0.2 1008.2 1.8 96
2017-09-21 11:00:00 14.1 20 Norte 33 Noroeste 2.5 1007.6 1.8 98
2017-09-21 10:00:00 14.9 17 Norte 33 Noroeste 2.1 1007.2 2.1 98
2017-09-21 09:00:00 15.7 0 Calma 11 Norte 1.4 1006.4 1.5 98
2017-09-21 08:00:00 14.9 4 Noroeste 11 Nordeste 3.2 1005.8 1 96
2017-09-21 07:00:00 14.9 0 Calma 13 Sudeste 0.1 1005.1 -0.4 92
2017-09-21 06:00:00 14.1 7 Sur 11 Sur 0 1004.9 -0.9 90
2017-09-21 05:00:00 14.4 8 Sudeste 17 Sudeste 0 1004.8 -1 88
2017-09-21 04:00:00 13.4 13 Sur 15 Sur 0 1005.5 -0.4 92
2017-09-21 03:00:00 13.4 10 Sur 13 Sur 0 1005.8 -0.4 92
2017-09-21 02:00:00 13.3 7 Sur 11 Sur 0 1005.8 -0.6 92
2017-09-21 01:00:00 13.7 5 Sur 26 Sur 0 1005.9 -0.5 91
2017-09-21 00:00:00 14.1 14 Sur 18 Sur 0 1006.2 0.4 89
2017-09-20 23:00:00 15.4 0 Calma 5 Noroeste 0 1006.4 0.5 78
2017-09-20 22:00:00 15.4 3 Noroeste 8 Noroeste 0 1006.4 0.2 81
2017-09-20 21:00:00 16.9 0 Calma 8 Norte 0 1005.8 -0.5 77
2017-09-20 20:00:00 18.6 5 Norte 15 Norte 0 1005.9 -0.7 68
2017-09-20 19:00:00 19.2 7 Norte 18 Norte 0 1006.2 -0.9 66
2017-09-20 18:00:00 20 13 Nordeste 21 Norte 0 1006.3 -1.3 62
2017-09-20 17:00:00 20.1 12 Norte 21 Norte 0 1006.6 -1.4 62
2017-09-20 16:00:00 20.6 13 Nordeste 18 Norte 0 1007.1 -1.5 58
2017-09-20 15:00:00 20.3 12 Nordeste 18 Nordeste 0 1007.6 -1.4 61
2017-09-20 14:00:00 19.4 7 Norte 17 Norte 0 1008 -1.1 65
2017-09-20 13:00:00 18.4 8 Nordeste 17 Nordeste 0 1008.6 -0.3 71
2017-09-20 12:00:00 17.2 4 Nordeste 8 Nordeste 0 1009 0 78
2017-09-20 11:00:00 13.6 3 Sur 15 Sudeste 0 1009.1 -0.1 95
2017-09-20 10:00:00 10.4 5 Sur 21 Sudeste 0 1008.9 -0.5 99
2017-09-20 09:00:00 9.4 6 Sur 18 Sur 0 1009 -0.7 99
2017-09-20 08:00:00 9.3 9 Sur 13 Sur 0 1009.2 -1 99
2017-09-20 07:00:00 9.9 7 Sur 21 Sudeste 0 1009.4 -1.1 98
2017-09-20 06:00:00 10.3 6 Sur 13 Sur 0 1009.7 -1.3 98
2017-09-20 05:00:00 10.5 7 Sur 11 Sur 0 1010.2 -1.2 98
2017-09-20 04:00:00 10.9 7 Sur 13 Sur 0 1010.5 -1.2 97
2017-09-20 03:00:00 11.7 7 Sur 11 Sur 0 1011 -1.2 97
2017-09-20 02:00:00 12.2 7 Sur 11 Sur 0 1011.4 -0.7 96
2017-09-20 01:00:00 12.8 5 Sur 8 Sur 0 1011.7 -0.4 95
2017-09-20 00:00:00 13.5 0 Calma 5 Sudeste 0 1012.2 0.4 93
2017-09-19 23:00:00 14.6 3 Noroeste 8 Oeste 0 1012.1 0.3 89
2017-09-19 22:00:00 15.3 2 Noroeste 8 Noroeste 0 1012.1 0.2 86
2017-09-19 21:00:00 16.3 3 Noroeste 15 Norte 0 1011.8 -0.3 80
2017-09-19 20:00:00 18.3 6 Norte 17 Norte 0 1011.8 -0.4 68
2017-09-19 19:00:00 18.8 9 Norte 18 Norte 0 1011.9 -0.6 69
2017-09-19 18:00:00 18.9 12 Norte 24 Nordeste 0 1012.1 -0.7 71
2017-09-19 17:00:00 19.1 15 Norte 26 Norte 0 1012.2 -1 71
2017-09-19 16:00:00 19.5 12 Norte 24 Norte 0 1012.5 -0.8 65
2017-09-19 15:00:00 19.1 12 Norte 21 Norte 0 1012.8 -0.6 66
2017-09-19 14:00:00 19.4 14 Norte 21 Norte 0 1013.2 -0.3 65
2017-09-19 13:00:00 19.1 8 Norte 15 Norte 0 1013.3 0.2 64
2017-09-19 12:00:00 18.5 0 Calma 8 Este 0 1013.4 0.7 77
2017-09-19 11:00:00 17.3 4 Sudeste 17 Sudeste 0 1013.5 1 81
2017-09-19 10:00:00 15.4 4 Sur 9 Sur 0 1013.1 0.8 89
2017-09-19 09:00:00 13.4 4 Sur 11 Sudeste 0 1012.7 0.3 95
2017-09-19 08:00:00 12.7 3 Sur 17 Sudeste 0 1012.5 0 96
2017-09-19 07:00:00 13 5 Sur 15 Sur 0 1012.3 -0.4 96
2017-09-19 06:00:00 13.4 0 Calma 8 Sur 0 1012.4 -0.6 96
2017-09-19 05:00:00 12.9 6 Sur 11 Sur 0 1012.5 -0.2 96
2017-09-19 04:00:00 13.3 2 Sur 5 Sudoeste 0 1012.7 -0.1 95
2017-09-19 03:00:00 14.2 2 Sur 4 Sur 0 1013 0.3 94
2017-09-19 02:00:00 15.3 0 Calma 4 Noroeste 0 1012.7 0.1 89
2017-09-19 01:00:00 16.5 2 Norte 8 Norte 0 1012.8 0.6 82
2017-09-19 00:00:00 16.7 4 Norte 15 Norte 0 1012.7 1.1 81
2017-09-18 23:00:00 16.8 6 Norte 17 Norte 0 1012.6 1.4 82
2017-09-18 22:00:00 16.6 0 Calma 11 Oeste 0 1012.2 1.5 87
2017-09-18 21:00:00 16.7 5 Noroeste 18 Norte 0 1011.6 1.3 85
2017-09-18 20:00:00 18 13 Norte 24 Noroeste 0 1011.2 1.3 78
2017-09-18 19:00:00 18.5 13 Norte 24 Norte 0 1010.7 1.1 78
2017-09-18 18:00:00 19.2 10 Norte 22 Norte 0 1010.3 0.9 77
2017-09-18 17:00:00 19 12 Norte 22 Norte 0 1009.9 1 74
2017-09-18 16:00:00 19 13 Norte 22 Norte 0 1009.6 1.2 79
2017-09-18 15:00:00 18.9 12 Norte 32 Norte 0 1009.4 1.2 84
2017-09-18 14:00:00 19.8 12 Noroeste 22 Norte 0.3 1008.9 1.2 76
2017-09-18 13:00:00 19.8 6 Oeste 22 Noroeste 0 1008.4 1.5 73
2017-09-18 12:00:00 19.2 9 Oeste 17 Sudoeste 0 1008.2 1.8 77
2017-09-18 11:00:00 17.3 6 Sur 15 Sur 0 1007.7 1.8 87
2017-09-18 10:00:00 15.9 7 Sur 18 Sur 0 1006.9 1.4 91
2017-09-18 09:00:00 15.9 12 Sudoeste 18 Sudoeste 0 1006.4 1.1 88
2017-09-18 08:00:00 15.2 9 Sudoeste 21 Oeste 0 1005.9 0.7 90
2017-09-18 07:00:00 15.5 13 Sudoeste 21 Sudoeste 0 1005.5 0.3 91
2017-09-18 06:00:00 15.2 17 Sudoeste 24 Sudoeste 0.5 1005.3 -0.1 90
2017-09-18 05:00:00 14.7 15 Sudoeste 33 Sudoeste 0.1 1005.2 0.1 91
2017-09-18 04:00:00 14.7 25 Sudoeste 37 Sudoeste 0 1005.2 -0.3 88
2017-09-18 03:00:00 14.5 33 Sudoeste 50 Sudoeste 0 1005.4 -1 88
2017-09-18 02:00:00 14.9 37 Sudoeste 52 Sudoeste 0 1005.1 -1.7 86
2017-09-18 01:00:00 14.5 21 Sudoeste 41 Sudoeste 1.5 1005.5 -1.7 87
2017-09-18 00:00:00 14.5 12 Sur 26 Sudeste 0.5 1006.4 -1 88
2017-09-17 23:00:00 14.2 10 Sur 18 Sudeste 0.4 1006.8 -0.2 92
2017-09-17 22:00:00 14.4 9 Sur 18 Sur 2.6 1007.2 0 88
2017-09-17 21:00:00 16.3 14 Sudoeste 18 Sudoeste 0.1 1007.4 0.2 73
2017-09-17 20:00:00 17.4 10 Oeste 28 Oeste 0 1007 -0.4 63
2017-09-17 19:00:00 18.3 10 Oeste 26 Oeste 0 1007.2 -0.1 62
2017-09-17 18:00:00 18.6 16 Oeste 35 Oeste 0 1007.2 -0.6 62
2017-09-17 17:00:00 18.9 15 Noroeste 26 Noroeste 0 1007.4 -0.9 57
2017-09-17 16:00:00 18.9 10 Oeste 22 Norte 0 1007.3 -1.3 55
2017-09-17 15:00:00 19 7 Norte 22 Oeste 0 1007.8 -0.8 56
2017-09-17 14:00:00 18.4 13 Oeste 26 Oeste 0 1008.3 0.1 59
2017-09-17 13:00:00 16.7 15 Oeste 26 Oeste 0 1008.6 0.8 66
2017-09-17 12:00:00 14.6 15 Sudoeste 33 Noroeste 0 1008.6 0.8 82
2017-09-17 11:00:00 16.7 6 Sudoeste 24 Sudoeste 0 1008.2 1 68
2017-09-17 10:00:00 14.9 12 Oeste 24 Oeste 0 1007.8 0.7 75
2017-09-17 09:00:00 12.7 6 Sur 18 Sur 0 1007.8 0.7 82
2017-09-17 08:00:00 13.2 13 Sudoeste 24 Sudeste 0 1007.2 0.2 80
2017-09-17 07:00:00 11.8 10 Sudeste 24 Sudeste 0 1007.1 0 85
2017-09-17 06:00:00 12.4 9 Sur 15 Oeste 0 1007.1 -0.2 84
2017-09-17 05:00:00 14.3 8 Oeste 22 Oeste 0 1007 -0.8 72
2017-09-17 04:00:00 14.3 13 Oeste 21 Oeste 0 1007.1 -1 73
2017-09-17 03:00:00 14.1 7 Sudoeste 17 Oeste 0 1007.3 -0.8 73
2017-09-17 02:00:00 14.3 11 Oeste 18 Oeste 0 1007.8 -0.3 72
2017-09-17 01:00:00 13 2 Sur 5 Sur 0 1008.1 0.3 81
2017-09-17 00:00:00 14 2 Sudoeste 9 Noroeste 0 1008.1 0.6 76
2017-09-16 23:00:00 14.3 2 Noroeste 8 Noroeste 0 1008.1 0.7 72
2017-09-16 22:00:00 15.3 4 Noroeste 8 Oeste 0 1007.8 0.4 67
2017-09-16 21:00:00 15.4 3 Noroeste 17 Noroeste 0 1007.5 0.2 67
2017-09-16 20:00:00 16.5 9 Noroeste 24 Noroeste 0 1007.4 -0.1 59
2017-09-16 19:00:00 17.2 16 Noroeste 24 Noroeste 0 1007.4 0.1 52
2017-09-16 18:00:00 17.6 8 Norte 24 Norte 0 1007.3 -0.4 53
2017-09-16 17:00:00 16.9 12 Norte 28 Noroeste 0 1007.5 -0.5 64
2017-09-16 16:00:00 17.9 13 Norte 26 Norte 0 1007.3 -0.9 52
2017-09-16 15:00:00 17 9 Norte 21 Norte 0 1007.7 -0.7 56
2017-09-16 14:00:00 16.7 8 Norte 18 Nordeste 0 1008 -0.3 59
2017-09-16 13:00:00 16.3 7 Norte 15 Nordeste 0 1008.2 0.5 65
2017-09-16 12:00:00 14.6 0 Calma 15 Este 0 1008.4 1 82
2017-09-16 11:00:00 13.3 4 Sur 18 Sudeste 0 1008.3 1.4 87
2017-09-16 10:00:00 10.4 7 Sur 13 Sur 0 1007.7 0.8 95
2017-09-16 09:00:00 8.6 10 Sur 15 Sur 0 1007.4 0.3 98
2017-09-16 08:00:00 8.9 7 Sur 13 Sur 0 1006.9 -0.5 97
2017-09-16 07:00:00 9.4 5 Sur 17 Sur 0.2 1006.9 -0.6 96
2017-09-16 06:00:00 9.7 6 Sur 15 Sur 0.1 1007.1 -0.8 97
2017-09-16 05:00:00 9.2 12 Este 22 Este 0 1007.4 -1 97
2017-09-16 04:00:00 9.9 6 Sur 13 Sur 0 1007.5 -1.3 97
2017-09-16 03:00:00 10.5 9 Sur 13 Sur 0 1007.9 -0.9 96
2017-09-16 02:00:00 11.4 0 Calma 17 Este 2 1008.4 -0.4 90
2017-09-16 01:00:00 11.5 5 Sur 8 Sur 0 1008.8 0 90
2017-09-16 00:00:00 13 0 Calma 13 Norte 0 1008.8 0.5 83
2017-09-15 23:00:00 12.6 0 Calma 5 Noroeste 0 1008.8 0.5 89
2017-09-15 22:00:00 13.4 2 Noroeste 33 Nordeste 0.1 1008.8 0.5 83
2017-09-15 21:00:00 15.2 11 Norte 30 Norte 0 1008.3 0 68
2017-09-15 20:00:00 16.1 15 Norte 32 Norte 0 1008.3 -0.2 64
2017-09-15 19:00:00 16.4 17 Norte 33 Norte 0 1008.3 -0.6 64
2017-09-15 18:00:00 17 19 Norte 32 Norte 0 1008.3 -1 60
2017-09-15 17:00:00 17.2 17 Norte 35 Norte 0 1008.5 -1.1 57
2017-09-15 16:00:00 17.1 19 Norte 35 Norte 0 1008.9 -1 58
2017-09-15 15:00:00 16.9 18 Norte 46 Noroeste 0 1009.3 -0.9 60
2017-09-15 14:00:00 17.4 16 Norte 30 Norte 0 1009.6 -0.4 57
2017-09-15 13:00:00 16.5 11 Norte 21 Noroeste 0 1009.9 0.1 64
2017-09-15 12:00:00 16.8 3 Este 17 Este 0 1010.2 0.4 67
2017-09-15 11:00:00 14.2 3 Sudeste 13 Sur 0 1010 0.5 86
2017-09-15 10:00:00 10.3 5 Sur 13 Sur 0 1009.8 0.2 98
2017-09-15 09:00:00 8.7 6 Sur 13 Sur 0 1009.8 -0.3 98
2017-09-15 08:00:00 8.9 6 Sur 8 Sur 0 1009.5 -0.8 98
2017-09-15 07:00:00 9.4 6 Sur 11 Sur 0 1009.6 -1.2 97
2017-09-15 06:00:00 10.4 5 Sur 8 Sur 0 1010.1 -1 96
2017-09-15 05:00:00 11.3 5 Sudoeste 17 Norte 0.1 1010.3 -1 94
2017-09-15 04:00:00 12.2 7 Noroeste 32 Norte 0.1 1010.8 -0.8 92
2017-09-15 03:00:00 11 3 Sudoeste 8 Sur 0.2 1011.1 -0.6 95
2017-09-15 02:00:00 11.2 5 Sur 11 Sur 0.5 1011.3 -0.7 93
2017-09-15 01:00:00 12.3 5 Sur 8 Sur 0 1011.6 -0.6 83
2017-09-15 00:00:00 12.9 2 Sudeste 8 Norte 0 1011.7 -0.3 80
2017-09-14 23:00:00 14.7 0 Calma 15 Nordeste 0 1012 0.1 74
2017-09-14 22:00:00 15.4 8 Nordeste 22 Norte 0 1012.2 0.3 67
2017-09-14 21:00:00 16.2 14 Norte 28 Norte 0 1012 -0.1 61
2017-09-14 20:00:00 17.2 15 Norte 33 Norte 0 1011.9 -0.5 62
2017-09-14 19:00:00 17.7 19 Norte 37 Norte 0 1011.9 -0.9 57
2017-09-14 18:00:00 17.8 24 Norte 39 Norte 0 1012.1 -1.4 56
2017-09-14 17:00:00 18.3 22 Norte 35 Norte 0 1012.4 -1.5 56
2017-09-14 16:00:00 18.3 21 Norte 35 Norte 0 1012.8 -1.3 53
2017-09-14 15:00:00 18.3 20 Norte 35 Noroeste 0 1013.5 -0.7 47
2017-09-14 14:00:00 18 18 Norte 32 Norte 0 1013.9 0.1 54
2017-09-14 13:00:00 17.4 16 Norte 32 Norte 0 1014.1 1 58
2017-09-14 12:00:00 17.3 14 Norte 32 Norte 0 1014.2 1.4 64
2017-09-14 11:00:00 17.1 12 Nordeste 21 Norte 0 1013.8 1.6 67
2017-09-14 10:00:00 15.3 2 Norte 8 Nordeste 0 1013.1 1.3 80
2017-09-14 09:00:00 14.5 2 Norte 9 Nordeste 0 1012.8 1.2 84
2017-09-14 08:00:00 14.1 0 Calma 15 Este 0 1012.2 1 96
2017-09-14 07:00:00 14.3 3 Sur 13 Sudeste 0 1011.8 1.4 97
2017-09-14 06:00:00 14.2 3 Norte 32 Norte 1 1011.6 2.2 98
2017-09-14 05:00:00 14.7 12 Norte 39 Norte 0.6 1011.2 1.3 98
2017-09-14 04:00:00 15.9 23 Norte 45 Noroeste 1.3 1010.4 0.1 97
2017-09-14 03:00:00 18.6 14 Sudoeste 22 Sudoeste 0 1009.4 -1 84
2017-09-14 02:00:00 18.6 9 Sudoeste 18 Sudoeste 0 1009.9 -0.4 82
2017-09-14 01:00:00 18.1 10 Sur 17 Oeste 0 1010.3 0.2 86
2017-09-14 00:00:00 18.7 8 Sudoeste 18 Oeste 0 1010.4 0.6 83
2017-09-13 23:00:00 19.7 10 Oeste 21 Oeste 0 1010.3 0.6 77
2017-09-13 22:00:00 19.8 6 Sudoeste 17 Sur 0 1010.1 0.4 76
2017-09-13 21:00:00 20.4 5 Oeste 21 Sudoeste 0 1009.8 -0.1 71
2017-09-13 20:00:00 20.7 6 Oeste 21 Oeste 0 1009.7 -0.6 71
2017-09-13 19:00:00 20.5 6 Oeste 22 Oeste 0 1009.7 -0.5 73
2017-09-13 18:00:00 20.7 12 Oeste 32 Noroeste 0 1009.9 -0.4 74
2017-09-13 17:00:00 19.9 17 Noroeste 39 Noroeste 0 1010.3 -0.4 78
2017-09-13 16:00:00 21.6 20 Noroeste 33 Norte 0 1010.2 -0.7 74
2017-09-13 15:00:00 22 7 Noroeste 22 Noroeste 0 1010.3 -0.6 74
2017-09-13 14:00:00 21.6 5 Oeste 17 Oeste 0 1010.7 -0.1 74
2017-09-13 13:00:00 20.9 4 Noroeste 24 Noroeste 0 1010.9 0.5 78
2017-09-13 12:00:00 21.1 9 Oeste 24 Sudoeste 0 1010.9 0.5 74
2017-09-13 11:00:00 20.3 12 Sudoeste 21 Sudoeste 0 1010.8 0.8 77
2017-09-13 10:00:00 18.9 10 Sur 18 Sudoeste 0 1010.4 0.6 84
2017-09-13 09:00:00 18.2 7 Sudoeste 15 Sudoeste 0 1010.4 0.6 86
2017-09-13 08:00:00 18.5 7 Sudoeste 18 Sudeste 0 1010 0 83
2017-09-13 07:00:00 18.5 8 Sur 21 Sur 0 1009.8 -0.5 84
2017-09-13 06:00:00 18.5 9 Sudoeste 13 Sur 0 1009.8 -0.8 84
2017-09-13 05:00:00 18.5 6 Sur 13 Sudoeste 0 1010 -0.7 84
2017-09-13 04:00:00 18.6 8 Sudoeste 18 Sudoeste 0 1010.3 -0.6 83
2017-09-13 03:00:00 18.8 11 Sudoeste 17 Sudoeste 0 1010.6 -0.5 82
2017-09-13 02:00:00 18.8 8 Sur 15 Sur 0 1010.7 -0.1 80
2017-09-13 01:00:00 18.9 6 Sur 15 Sur 0 1010.9 0.4 80
2017-09-13 00:00:00 18.9 5 Oeste 17 Sur 0 1011.1 1.5 80
2017-09-12 23:00:00 18.9 9 Sudoeste 17 Sudoeste 0 1010.8 1.7 81
2017-09-12 22:00:00 20 8 Oeste 21 Sudoeste 0 1010.5 1.5 77
2017-09-12 21:00:00 20 6 Noroeste 21 Oeste 0 1009.6 0.9 78
2017-09-12 20:00:00 20.5 11 Noroeste 30 Oeste 0 1009.1 0 77
2017-09-12 19:00:00 20.9 19 Noroeste 35 Oeste 0 1009 0.3 75
2017-09-12 18:00:00 22 17 Noroeste 39 Oeste 0 1008.7 0 71
2017-09-12 17:00:00 21.4 16 Noroeste 33 Noroeste 0.1 1009.1 0.2 76
2017-09-12 16:00:00 22.2 14 Noroeste 30 Oeste 0 1008.7 0 71
2017-09-12 15:00:00 22.3 15 Oeste 28 Oeste 0 1008.7 0.4 69
2017-09-12 14:00:00 21 10 Oeste 26 Oeste 0 1008.9 1.3 77
2017-09-12 13:00:00 20.2 5 Noroeste 18 Noroeste 0 1008.7 1.7 81
2017-09-12 12:00:00 18.6 9 Noroeste 22 Oeste 0 1008.3 1.9 88
2017-09-12 11:00:00 18.9 15 Oeste 26 Oeste 0 1007.6 1.6 83
2017-09-12 10:00:00 18.2 14 Oeste 24 Oeste 0 1007 1.1 87
2017-09-12 09:00:00 17.1 6 Sudoeste 21 Sudoeste 0 1006.4 0.6 91
2017-09-12 08:00:00 17 14 Sudoeste 26 Sudoeste 0.4 1006 -0.4 90
2017-09-12 07:00:00 15.9 8 Sur 18 Sudoeste 0.3 1005.9 -1 91
2017-09-12 06:00:00 15.6 13 Sur 21 Sur 0.1 1005.8 -1.3 92
2017-09-12 05:00:00 15.7 9 Sur 15 Sur 0 1006.4 -0.7 92
2017-09-12 04:00:00 15.8 6 Sur 15 Sudoeste 0 1006.9 -0.4 94
2017-09-12 03:00:00 15.5 5 Sur 13 Oeste 0 1007.1 -0.5 94
2017-09-12 02:00:00 15.5 7 Sur 17 Oeste 0 1007.1 -0.5 94
2017-09-12 01:00:00 15.5 4 Sudoeste 18 Oeste 0 1007.3 0 93
2017-09-12 00:00:00 15.6 10 Oeste 18 Oeste 0.5 1007.6 1 92
2017-09-11 23:00:00 15.5 9 Sudoeste 21 Oeste 0.3 1007.6 0.7 94
2017-09-11 22:00:00 15.8 3 Noroeste 18 Oeste 0 1007.3 0.8 89
2017-09-11 21:00:00 16.2 12 Sudoeste 26 Oeste 0 1006.6 0.3 84
2017-09-11 20:00:00 17.1 18 Noroeste 33 Oeste 0 1006.9 0.9 78
2017-09-11 19:00:00 18.6 18 Noroeste 39 Oeste 0 1006.5 0.4 65
2017-09-11 18:00:00 19.6 24 Noroeste 39 Noroeste 0 1006.3 -0.1 62
2017-09-11 17:00:00 20 21 Noroeste 37 Norte 0 1006 -0.7 64
2017-09-11 16:00:00 20.5 18 Noroeste 37 Noroeste 0 1006.1 -0.6 57
2017-09-11 15:00:00 19.9 21 Noroeste 35 Norte 0 1006.4 0.1 58
2017-09-11 14:00:00 19.7 17 Noroeste 33 Noroeste 0 1006.7 0.8 63
2017-09-11 13:00:00 19.1 17 Noroeste 33 Noroeste 0 1006.7 1.2 66
2017-09-11 12:00:00 19 19 Noroeste 32 Noroeste 0 1006.3 0.8 68
2017-09-11 11:00:00 18.5 10 Noroeste 21 Oeste 0 1005.9 0.9 75
2017-09-11 10:00:00 17.6 8 Noroeste 22 Noroeste 0 1005.5 0.9 84
2017-09-11 09:00:00 17 10 Oeste 21 Oeste 0 1005.5 0.8 87
2017-09-11 08:00:00 16.9 10 Oeste 22 Oeste 0 1005 0.2 86
2017-09-11 07:00:00 16.9 10 Oeste 21 Oeste 0 1004.6 -0.1 87
2017-09-11 06:00:00 17.1 13 Noroeste 26 Oeste 0 1004.7 0 92
2017-09-11 05:00:00 17 16 Noroeste 32 Noroeste 0.5 1004.8 0 95
2017-09-11 04:00:00 17.5 11 Oeste 28 Oeste 0.8 1004.7 -0.4 95
2017-09-11 03:00:00 17.3 10 Sudoeste 18 Sudoeste 0.2 1004.7 -0.6 94
2017-09-11 02:00:00 17.1 15 Sudoeste 22 Sudoeste 0 1004.8 -0.6 94
2017-09-11 01:00:00 17.2 14 Sudoeste 21 Sudoeste 0 1005.1 -0.4 91
2017-09-11 00:00:00 17.5 8 Sudoeste 24 Sudoeste 0 1005.3 0 91
2017-09-10 23:00:00 17.2 19 Sudoeste 24 Sudoeste 0.6 1005.4 -0.1 95
2017-09-10 22:00:00 18.3 15 Sudoeste 26 Oeste 0.1 1005.5 0 90
2017-09-10 21:00:00 18.6 9 Sudoeste 26 Sudoeste 0 1005.3 -0.6 86
2017-09-10 20:00:00 18.5 8 Sudoeste 22 Sur 0 1005.5 -0.8 86
2017-09-10 19:00:00 17.1 8 Sudeste 35 Sudeste 0 1005.5 -1 92
2017-09-10 18:00:00 17.3 9 Sur 21 Sudoeste 0 1005.9 -1 89
2017-09-10 17:00:00 17.2 10 Sur 22 Oeste 0 1006.3 -0.5 87
2017-09-10 16:00:00 19.5 14 Sudoeste 30 Sudoeste 0 1006.5 -0.3 65
2017-09-10 15:00:00 19.7 12 Sudoeste 26 Oeste 0 1006.9 0.1 59
2017-09-10 14:00:00 19.7 13 Oeste 32 Oeste 0 1006.8 0.3 60
2017-09-10 13:00:00 19.2 12 Noroeste 26 Sudoeste 0 1006.8 0.7 66
2017-09-10 12:00:00 19 15 Oeste 28 Oeste 0 1006.8 0.9 64
2017-09-10 11:00:00 17.7 17 Oeste 28 Noroeste 0 1006.5 1 70
2017-09-10 10:00:00 14.7 5 Sur 15 Sur 0 1006.1 0.5 91
2017-09-10 09:00:00 12.9 4 Sur 13 Sur 0 1005.9 0.6 95
2017-09-10 08:00:00 12.4 6 Sur 17 Sur 0 1005.5 0.2 97
2017-09-10 07:00:00 12.4 6 Sur 8 Sur 0 1005.6 0.1 97
2017-09-10 06:00:00 12.9 5 Sur 13 Sur 0 1005.3 -0.3 97
2017-09-10 05:00:00 13.1 6 Sur 11 Sur 0 1005.3 -0.3 96
2017-09-10 04:00:00 13.8 0 Calma 5 Sudoeste 0 1005.5 0.1 95
2017-09-10 03:00:00 14.3 2 Sudeste 5 Sudoeste 0 1005.6 0.4 95
2017-09-10 02:00:00 15.4 0 Calma 22 Norte 0.1 1005.6 0.6 87
2017-09-10 01:00:00 15.3 5 Noroeste 15 Noroeste 0.3 1005.4 0.8 84
2017-09-10 00:00:00 15.5 3 Noroeste 15 Noroeste 0 1005.2 1.4 80
2017-09-09 23:00:00 16.2 9 Norte 21 Norte 0 1005 1.3 78
2017-09-09 22:00:00 15.5 5 Noroeste 32 Noroeste 0.2 1004.6 1 85
2017-09-09 21:00:00 17.2 14 Norte 35 Norte 0 1003.8 0.2 70
2017-09-09 20:00:00 18 19 Norte 35 Noroeste 0 1003.7 0 64
2017-09-09 19:00:00 18.6 24 Noroeste 37 Norte 0 1003.6 -0.1 58
2017-09-09 18:00:00 18.6 21 Noroeste 41 Noroeste 0 1003.6 -0.2 61
2017-09-09 17:00:00 18.8 21 Noroeste 42 Noroeste 0 1003.7 0 60
2017-09-09 16:00:00 18.8 24 Noroeste 42 Noroeste 0 1003.7 -0.1 59
2017-09-09 15:00:00 17.3 26 Norte 42 Noroeste 0.1 1003.8 0.2 70
2017-09-09 14:00:00 17.8 20 Noroeste 39 Noroeste 0 1003.7 0.4 70
2017-09-09 13:00:00 17.3 15 Noroeste 28 Noroeste 0 1003.8 0.7 75
2017-09-09 12:00:00 15.5 15 Noroeste 37 Norte 0.5 1003.6 0.7 88
2017-09-09 11:00:00 16.9 12 Noroeste 22 Oeste 0 1003.3 0.7 77
2017-09-09 10:00:00 15.6 5 Noroeste 18 Oeste 0.9 1003.1 0.6 86
2017-09-09 09:00:00 14.6 6 Oeste 41 Norte 0.9 1002.9 0.6 89
2017-09-09 08:00:00 15.6 4 Oeste 11 Noroeste 0 1002.6 0.1 79
2017-09-09 07:00:00 15.5 6 Noroeste 24 Norte 0.2 1002.5 -0.1 86
2017-09-09 06:00:00 15.6 4 Noroeste 11 Noroeste 0 1002.3 -0.5 86
2017-09-09 05:00:00 15.9 6 Noroeste 22 Noroeste 0 1002.5 -0.3 84
2017-09-09 04:00:00 16.3 10 Noroeste 22 Norte 0.4 1002.6 -0.1 85
2017-09-09 03:00:00 16.6 5 Noroeste 21 Noroeste 0 1002.8 -0.4 89
2017-09-09 02:00:00 16.7 17 Noroeste 35 Oeste 3.4 1002.8 -0.6 94
2017-09-09 01:00:00 17.1 16 Oeste 28 Oeste 0 1002.7 -0.7 91
2017-09-09 00:00:00 17.1 14 Noroeste 32 Oeste 0.7 1003.2 0 93
2017-09-08 23:00:00 17.5 12 Noroeste 24 Oeste 0.3 1003.4 -0.1 90
2017-09-08 22:00:00 18 16 Oeste 24 Oeste 0 1003.4 -0.6 84
2017-09-08 21:00:00 18.1 15 Oeste 32 Oeste 0 1003.2 -0.4 85
2017-09-08 20:00:00 19 18 Oeste 35 Oeste 0 1003.5 -0.2 77
2017-09-08 19:00:00 18.9 18 Oeste 39 Noroeste 0 1004 -0.3 81
2017-09-08 18:00:00 20.9 18 Noroeste 35 Noroeste 0 1003.6 -1 67
2017-09-08 17:00:00 21.9 16 Noroeste 37 Noroeste 0 1003.7 -1.9 59
2017-09-08 16:00:00 22 21 Noroeste 35 Noroeste 0 1004.3 -2 56
2017-09-08 15:00:00 21.4 12 Noroeste 24 Oeste 0 1004.6 -1.7 56
2017-09-08 14:00:00 20.4 13 Oeste 26 Oeste 0 1005.6 -0.7 62
2017-09-08 13:00:00 19.1 13 Noroeste 24 Noroeste 0 1006.3 0 66
2017-09-08 12:00:00 19.3 0 Calma 11 Este 0 1006.3 -- 65
2017-09-08 11:00:00 16.6 2 Sur 22 Sudeste 0 1006.3 -- 76
2017-09-08 10:00:00 11.7 7 Sur -- -- -- 1006.3 -- 91
2017-09-08 09:00:00 -- -- -- -- -- -- -- -- --
2017-09-08 08:00:00 -- -- -- -- -- -- -- -- --
2017-09-08 07:00:00 -- -- -- -- -- -- -- -- --
2017-09-08 06:00:00 -- -- -- -- -- -- -- -- --
2017-09-08 05:00:00 -- -- -- -- -- -- -- -- --
2017-09-08 04:00:00 -- -- -- -- -- -- -- -- --
2017-09-08 03:00:00 -- -- -- -- -- -- -- -- --
2017-09-08 02:00:00 -- -- -- -- -- -- -- -- --
2017-09-08 01:00:00 -- -- -- -- -- -- -- -- --
2017-09-08 00:00:00 -- -- -- -- -- -- -- -- --
2017-09-07 23:00:00 -- -- -- -- -- -- -- -- --
2017-09-07 22:00:00 -- -- -- -- -- -- -- -- --
2017-09-07 21:00:00 -- -- -- -- -- -- -- -- --
2017-09-07 20:00:00 -- -- -- -- -- -- -- -- --
2017-09-07 19:00:00 -- -- -- -- -- -- -- -- --
2017-09-07 18:00:00 -- -- -- -- -- -- -- -- --
2017-09-07 17:00:00 -- -- -- -- -- -- -- -- --
2017-09-07 16:00:00 -- -- -- -- -- -- -- -- --
2017-09-07 15:00:00 -- -- -- -- -- -- -- -- --
2017-09-07 14:00:00 -- -- -- -- -- -- -- -- --
2017-09-07 13:00:00 -- -- -- -- -- -- -- -- --
2017-09-07 12:00:00 -- -- -- -- -- -- -- -- --
2017-09-07 11:00:00 -- -- -- -- -- -- -- -- --
2017-09-07 10:00:00 -- -- -- -- -- -- -- -- --
2017-09-07 09:00:00 10.2 4 Sur 11 Sur 0 1012.2 0.7 98
2017-09-07 08:00:00 9.8 5 Sur 11 Sur 0 1011.8 -0.3 98
2017-09-07 07:00:00 10.2 5 Sur 8 Sur 0 1011.6 -0.8 98
2017-09-07 06:00:00 10.9 4 Sur 5 Sudoeste 0 1011.5 -1.2 97
2017-09-07 05:00:00 12.1 0 Calma 8 Norte 0 1012.1 -1.2 94
2017-09-07 04:00:00 14.2 2 Norte 11 Norte 0 1012.4 -1.3 90
2017-09-07 03:00:00 15.4 3 Norte 11 Norte 0 1012.7 -1.1 86
2017-09-07 02:00:00 15.9 5 Norte 15 Norte 0 1013.3 -0.6 83
2017-09-07 01:00:00 16.3 6 Norte 18 Norte 0 1013.7 0 83
2017-09-07 00:00:00 16.6 7 Norte 13 Norte 0 1013.8 0.7 84
2017-09-06 23:00:00 17.2 8 Norte 22 Norte 0 1013.9 1 78
2017-09-06 22:00:00 17.8 13 Norte 30 Norte 0 1013.7 0.7 76
2017-09-06 21:00:00 18 13 Norte 30 Norte 0 1013.1 -0.2 80
2017-09-06 20:00:00 19.5 12 Norte 33 Norte 0 1012.9 -0.9 74
2017-09-06 19:00:00 19.9 19 Norte 39 Norte 0 1013 -1.5 72
2017-09-06 18:00:00 20.3 19 Norte 37 Norte 0 1013.3 -1.5 72
2017-09-06 17:00:00 21 19 Norte 42 Norte 0 1013.8 -1.4 69
2017-09-06 16:00:00 20.4 23 Norte 42 Norte 0 1014.5 -1.3 71
2017-09-06 15:00:00 20.9 19 Norte 37 Norte 0 1014.8 -1.2 67
2017-09-06 14:00:00 20.8 19 Norte 32 Norte 0 1015.2 -0.8 66
2017-09-06 13:00:00 20.5 10 Norte 30 Nordeste 0 1015.8 -0.3 65
2017-09-06 12:00:00 19.6 19 Nordeste 30 Nordeste 0 1016 0.2 67
2017-09-06 11:00:00 19.1 15 Nordeste 24 Nordeste 0 1016 0.5 70
2017-09-06 10:00:00 16.5 5 Nordeste 17 Norte 0 1016.1 0.9 83
2017-09-06 09:00:00 14.7 4 Norte 13 Norte 0 1015.8 0.6 89
2017-09-06 08:00:00 14.2 5 Norte 13 Norte 0 1015.5 0.2 91
2017-09-06 07:00:00 14.3 3 Noroeste 8 Noroeste 0 1015.2 -0.4 90
2017-09-06 06:00:00 14.6 3 Norte 11 Noroeste 0 1015.2 -0.7 89
2017-09-06 05:00:00 15.1 3 Norte 9 Norte 0 1015.3 -0.5 89
2017-09-06 04:00:00 15.5 5 Norte 11 Norte 0 1015.6 -0.2 88
2017-09-06 03:00:00 15.9 5 Norte 11 Norte 0 1015.9 0.1 87
2017-09-06 02:00:00 16.7 5 Norte 15 Norte 0 1015.8 0.4 83
2017-09-06 01:00:00 17.3 5 Norte 18 Norte 0 1015.8 0.7 81
2017-09-06 00:00:00 17.9 6 Norte 18 Norte 0 1015.8 1.5 81
2017-09-05 23:00:00 18 6 Norte 26 Norte 0 1015.4 1.7 82
2017-09-05 22:00:00 18.3 14 Norte 24 Norte 0 1015.1 1.7 85
2017-09-05 21:00:00 18 13 Norte 32 Norte 0 1014.3 1.1 92
2017-09-05 20:00:00 19.1 21 Norte 33 Norte 0 1013.7 0.6 84
2017-09-05 19:00:00 19.5 18 Norte 33 Noroeste 0 1013.4 0.7 83
2017-09-05 18:00:00 19.1 14 Noroeste 28 Noroeste 0 1013.2 0.8 92
2017-09-05 17:00:00 19.6 12 Noroeste 26 Norte 0 1013.1 0.9 91
2017-09-05 16:00:00 21.4 19 Norte 28 Noroeste 0 1012.7 0.6 79
2017-09-05 15:00:00 22.7 14 Nordeste 26 Nordeste 0 1012.4 0.3 69
2017-09-05 14:00:00 23 12 Nordeste 24 Nordeste 0 1012.2 0.7 66
2017-09-05 13:00:00 22.6 3 Noroeste 13 Noroeste 0 1012.1 1.2 64
2017-09-05 12:00:00 21.5 3 Sudoeste 17 Sudoeste 0 1012.1 2.1 71
2017-09-05 11:00:00 19.7 5 Sur 17 Sudeste 0 1011.5 1.8 79
2017-09-05 10:00:00 18.7 9 Sudoeste 18 Sudoeste 0 1010.9 1.7 81
2017-09-05 09:00:00 17.9 12 Sudoeste 22 Oeste 0 1010 0.9 83
2017-09-05 08:00:00 17.8 13 Oeste 21 Oeste 0 1009.7 0.3 85
2017-09-05 07:00:00 18 7 Oeste 18 Noroeste 0 1009.2 -0.3 86
2017-09-05 06:00:00 18.3 0 Calma 8 Sur 0 1009.1 -0.4 86
2017-09-05 05:00:00 18.5 0 Calma 8 Oeste 0 1009.4 -0.2 88
2017-09-05 04:00:00 18.4 2 Oeste 8 Sur 0 1009.5 -0.1 92
2017-09-05 03:00:00 18.3 3 Sur 8 Sur 0 1009.5 0.4 93
2017-09-05 02:00:00 18.3 0 Calma 8 Sudeste 0 1009.6 0.6 93
2017-09-05 01:00:00 18.4 0 Calma 4 Norte 0 1009.6 1.5 90
2017-09-05 00:00:00 18.5 2 Norte 15 Norte 0 1009.1 1.6 89
2017-09-04 23:00:00 18.7 4 Norte 13 Norte 0 1009 1.8 89
2017-09-04 22:00:00 18.7 7 Norte 15 Noroeste 0 1008.1 0.8 89
2017-09-04 21:00:00 18.7 5 Nordeste 13 Norte 0 1007.5 0.4 91
2017-09-04 20:00:00 19.4 4 Nordeste 13 Norte 0 1007.2 -0.1 87
2017-09-04 19:00:00 19.5 6 Nordeste 15 Norte 0 1007.3 0 87
2017-09-04 18:00:00 19.8 6 Nordeste 15 Norte 0 1007.1 -0.1 86
2017-09-04 17:00:00 19.6 8 Nordeste 18 Nordeste 0 1007.3 0.2 86
2017-09-04 16:00:00 20.6 10 Nordeste 18 Norte 0 1007.3 0.2 82
2017-09-04 15:00:00 21 12 Noroeste 21 Noroeste 0 1007.2 0.8 79
2017-09-04 14:00:00 20.7 13 Noroeste 21 Noroeste 0 1007.1 1.3 79
2017-09-04 13:00:00 19.9 8 Noroeste 21 Norte 0 1007.1 2 86
2017-09-04 12:00:00 20 7 Noroeste 15 Noroeste 0 1006.4 1.7 86
2017-09-04 11:00:00 20.2 0 Calma 15 Oeste 0 1005.8 1.7 83
2017-09-04 10:00:00 19.2 3 Este 9 Oeste 0 1005.1 1.2 90
2017-09-04 09:00:00 18 0 Calma 5 Oeste 0 1004.7 1.1 94
2017-09-04 08:00:00 17.7 3 Sudeste 15 Sudoeste 0 1004.1 0.1 97
2017-09-04 07:00:00 17.9 6 Oeste 15 Oeste 0.1 1003.9 0.1 95
2017-09-04 06:00:00 18 5 Oeste 17 Oeste 0 1003.6 -0.1 94
2017-09-04 05:00:00 17.9 6 Oeste 15 Oeste 0 1004 0.2 96
2017-09-04 04:00:00 17.9 6 Sudoeste 13 Oeste 0.3 1003.8 0.2 96
2017-09-04 03:00:00 18.1 5 Oeste 17 Oeste 0 1003.7 0.1 93
2017-09-04 02:00:00 18.6 13 Oeste 22 Oeste 0 1003.8 0.5 88
2017-09-04 01:00:00 18.5 9 Oeste 21 Oeste 0 1003.6 0.7 89
2017-09-04 00:00:00 18.8 13 Oeste 22 Oeste 0.3 1003.6 1 93
2017-09-03 23:00:00 19.5 2 Noroeste 15 Oeste 0 1003.3 0.7 89
2017-09-03 22:00:00 19.1 6 Sudoeste 24 Sudoeste 0.6 1002.9 0.6 90
2017-09-03 21:00:00 20 14 Sudoeste 28 Sudoeste 0 1002.6 0.3 83
2017-09-03 20:00:00 19.7 15 Sudoeste 32 Sudoeste 0 1002.6 -0.3 85
2017-09-03 19:00:00 20.3 20 Sudoeste 33 Sudoeste 0 1002.3 -1 84
2017-09-03 18:00:00 21.3 19 Sudoeste 39 Sur 0 1002.3 -1.3 79
2017-09-03 17:00:00 21.4 21 Oeste 45 Oeste 0 1002.9 -1.2 76
2017-09-03 16:00:00 23.4 10 Sudoeste 42 Sudoeste 0 1003.3 -1.6 70
2017-09-03 15:00:00 24.3 15 Oeste 28 Oeste 0 1003.6 -1.6 65
2017-09-03 14:00:00 23.3 7 Sudeste 15 Sur 0 1004.1 -0.9 61
2017-09-03 13:00:00 21.8 3 Sudeste 24 Este 0 1004.9 -0.1 64
2017-09-03 12:00:00 22.3 5 Este 21 Este 0 1005.2 0 52
2017-09-03 11:00:00 19.8 0 Calma 13 Sudeste 0 1005 -0.5 54
2017-09-03 10:00:00 15.8 3 Sudeste 21 Sur 0 1005 -0.6 70
2017-09-03 09:00:00 12.3 10 Sur 17 Sur 0 1005.2 -1.1 85
2017-09-03 08:00:00 12 12 Sur 24 Sudeste 0 1005.5 -1.3 85
2017-09-03 07:00:00 12.5 7 Sur 17 Sur 0 1005.6 -1.8 82
2017-09-03 06:00:00 13.4 4 Sur 11 Sur 0 1006.3 -1.5 80
2017-09-03 05:00:00 13.8 7 Sur 11 Sur 0 1006.8 -1.1 84
2017-09-03 04:00:00 14.8 5 Sur 8 Sur 0 1007.4 -1.2 78
2017-09-03 03:00:00 16.1 3 Noroeste 13 Noroeste 0 1007.8 -1.3 70
2017-09-03 02:00:00 16.2 6 Sur 8 Sur 0 1007.9 -1.5 82
2017-09-03 01:00:00 16.9 4 Sur 8 Sur 0 1008.6 -0.6 76
2017-09-03 00:00:00 17.3 3 Sur 13 Sudeste 0 1009.1 0.1 75
2017-09-02 23:00:00 18.4 2 Norte 13 Oeste 0 1009.4 0.4 60
2017-09-02 22:00:00 19.1 5 Oeste 11 Oeste 0 1009.2 0.2 57
2017-09-02 21:00:00 19.5 5 Oeste 17 Oeste 0 1009 -0.1 57
2017-09-02 20:00:00 20.2 5 Noroeste 17 Noroeste 0 1009 -0.2 56
2017-09-02 19:00:00 21.4 9 Noroeste 22 Noroeste 0 1009 -0.7 52
2017-09-02 18:00:00 22.3 18 Norte 26 Norte 0 1009.1 -1.3 51
2017-09-02 17:00:00 22.1 14 Norte 22 Norte 0 1009.2 -1.8 53
2017-09-02 16:00:00 22.2 12 Norte 21 Norte 0 1009.7 -1.9 53
2017-09-02 15:00:00 21 12 Norte 22 Norte 0 1010.4 -1.9 57
2017-09-02 14:00:00 22.9 3 Sur 26 Sudeste 0 1011 -1.7 47
2017-09-02 13:00:00 20.5 9 Este 22 Sudeste 0 1011.6 -0.8 53
2017-09-02 12:00:00 17.9 4 Este 11 Nordeste 0 1012.3 0 67
2017-09-02 11:00:00 15.2 2 Sur 5 Sur 0 1012.7 0.3 86
2017-09-02 10:00:00 12.2 0 Calma 11 Sur 0 1012.4 -0.1 98
2017-09-02 09:00:00 9.4 9 Sur 13 Sur 0 1012.3 -0.5 98
2017-09-02 08:00:00 8.4 5 Sur 8 Sudoeste 0 1012.4 -0.9 97
2017-09-02 07:00:00 9.3 6 Sur 13 Sur 0 1012.5 -1.4 98
2017-09-02 06:00:00 10.3 3 Sur 11 Sur 0 1012.8 -1.2 97
2017-09-02 05:00:00 11.3 7 Sur 13 Sur 0 1013.3 -1 96
2017-09-02 04:00:00 12.6 0 Calma 5 Norte 0 1013.9 -0.6 91
2017-09-02 03:00:00 14.2 3 Norte 8 Nordeste 0 1014 -0.8 86
2017-09-02 02:00:00 14.9 3 Norte 8 Nordeste 0 1014.3 -0.1 84
2017-09-02 01:00:00 15.4 6 Nordeste 13 Nordeste 0 1014.5 0.8 81
2017-09-02 00:00:00 16 4 Norte 15 Norte 0 1014.8 1.7 79
2017-09-01 23:00:00 16.7 6 Norte 18 Norte 0 1014.4 1.6 76
2017-09-01 22:00:00 17.5 9 Norte 26 Nordeste 0 1013.7 1.1 71
2017-09-01 21:00:00 18.6 12 Norte 32 Norte 0 1013.1 0.6 67
2017-09-01 20:00:00 19.4 13 Norte 32 Norte 0 1012.8 0.1 68
2017-09-01 19:00:00 19.7 19 Norte 37 Norte 0 1012.6 -0.3 69
2017-09-01 18:00:00 20.3 21 Norte 41 Norte 0 1012.5 -0.6 64
2017-09-01 17:00:00 19.9 23 Norte 42 Norte 0 1012.7 -0.6 64
2017-09-01 16:00:00 20.1 21 Norte 48 Norte 0 1012.9 -0.5 64
2017-09-01 15:00:00 20.2 19 Norte 39 Norte 0 1013.1 -0.4 65
2017-09-01 14:00:00 19.9 16 Norte 28 Norte 0 1013.3 0 67
2017-09-01 13:00:00 19.4 11 Norte 21 Norte 0 1013.4 0.4 68
2017-09-01 12:00:00 18.3 3 Norte 11 Norte 0 1013.5 0.8 72
2017-09-01 11:00:00 17 3 Sur 15 Sudeste 0 1013.3 0.8 72
2017-09-01 10:00:00 12.8 4 Sur 13 Sur 0 1013 0.9 92
2017-09-01 09:00:00 9.7 7 Sur 13 Sur 0 1012.7 0.5 98
2017-09-01 08:00:00 9.3 10 Sur 17 Sudeste 0 1012.5 0.1 98
2017-09-01 07:00:00 9.6 9 Sur 21 Sur 0 1012.1 -0.4 98
2017-09-01 06:00:00 10.4 7 Sur 11 Sur 0 1012.2 -0.4 97
2017-09-01 05:00:00 10.8 7 Sur 13 Sur 0 1012.4 -0.1 96
2017-09-01 04:00:00 11.6 5 Sur 9 Sur 0 1012.5 0 94
2017-09-01 03:00:00 12.3 7 Sur 11 Sur 0 1012.6 -0.2 93
2017-09-01 02:00:00 12.8 3 Sur 5 Sur 0 1012.5 0 88
2017-09-01 01:00:00 14.5 2 Noroeste -- -- 0 1012.5 0.4 82
2017-09-01 00:00:00 15.4 0 Calma 11 Este 0 1012.8 1.4 77
2017-08-31 23:00:00 16.3 6 Nordeste 18 Nordeste 0 1012.5 1.5 74
2017-08-31 22:00:00 17 10 Norte 24 Norte 0 1012.1 1.4 70
2017-08-31 21:00:00 17.5 15 Norte 33 Norte 0 1011.4 1 68
2017-08-31 20:00:00 18.4 19 Norte 37 Norte 0 1011 0.6 67
2017-08-31 19:00:00 18.9 23 Norte 45 Norte 0 1010.7 0 65
2017-08-31 18:00:00 19.1 28 Norte 42 Norte 0 1010.4 -0.6 64
2017-08-31 17:00:00 19.4 26 Norte 45 Norte 0 1010.4 -0.9 63
2017-08-31 16:00:00 19.5 22 Norte 41 Norte 0 1010.7 -0.7 63
2017-08-31 15:00:00 19.4 24 Norte 37 Norte 0 1011 -0.6 64
2017-08-31 14:00:00 19.4 18 Norte 37 Norte 0 1011.3 0 66
2017-08-31 13:00:00 19.3 14 Norte 26 Norte 0 1011.4 0.4 68
2017-08-31 12:00:00 18.1 15 Nordeste 22 Nordeste 0 1011.6 0.8 74
2017-08-31 11:00:00 16.8 6 Norte 15 Norte 0 1011.3 1.1 80
2017-08-31 10:00:00 15.4 2 Norte 5 Norte 0 1011 0.9 86
2017-08-31 09:00:00 13.7 0 Calma 5 Noroeste 0 1010.8 0.8 91
2017-08-31 08:00:00 13.9 2 Noroeste 4 Oeste 0 1010.2 0.5 92
2017-08-31 07:00:00 13.9 0 Calma 5 Noroeste 0 1010.1 0.6 93
2017-08-31 06:00:00 14.2 0 Calma -- -- 0 1010 0.7 92
2017-08-31 05:00:00 14.6 0 Calma 8 Noroeste 0 1009.7 0.1 91
2017-08-31 04:00:00 15.2 4 Noroeste 5 Noroeste 0 1009.5 0.1 91
2017-08-31 03:00:00 15.8 0 Calma 5 Norte 0 1009.3 0 86
2017-08-31 02:00:00 15.7 2 Norte 17 Nordeste 0 1009.6 0.6 88
2017-08-31 01:00:00 16.1 6 Norte 17 Norte 0 1009.4 0.9 86
2017-08-31 00:00:00 16.4 3 Norte 11 Norte 0 1009.3 1.5 83
2017-08-30 23:00:00 16.4 3 Norte 13 Norte 0 1009 1.5 82
2017-08-30 22:00:00 16.4 5 Norte 18 Nordeste 0 1008.5 1.6 82
2017-08-30 21:00:00 16.2 6 Norte 32 Norte 0 1007.8 1.3 89
2017-08-30 20:00:00 16.1 18 Norte 32 Noroeste 0 1007.5 1.3 90
2017-08-30 19:00:00 17.3 16 Norte 28 Norte 0 1006.9 0.9 84
2017-08-30 18:00:00 16.5 16 Norte 32 Norte 0 1006.5 0.6 89
2017-08-30 17:00:00 17.7 17 Norte 30 Norte 0 1006.2 0.5 83
2017-08-30 16:00:00 18.1 16 Norte 28 Norte 0 1006 0.6 83
2017-08-30 15:00:00 18 7 Norte 17 Norte 0 1005.9 0.6 87
2017-08-30 14:00:00 17.8 3 Norte 11 Norte 0.1 1005.7 0.7 90
2017-08-30 13:00:00 17.7 3 Norte 8 Norte 0 1005.4 0.8 89
2017-08-30 12:00:00 17.5 3 Norte 15 Nordeste 0 1005.3 1.1 93
2017-08-30 11:00:00 17.2 4 Norte 15 Norte 0.1 1005 1.4 98
2017-08-30 10:00:00 16.9 6 Norte 18 Norte 0 1004.6 1.1 98
2017-08-30 09:00:00 16.9 10 Norte 24 Norte 0.5 1004.2 0.6 98
2017-08-30 08:00:00 17.1 14 Norte 21 Norte 0 1003.6 0.4 98
2017-08-30 07:00:00 17.9 5 Norte 15 Norte 0 1003.5 0.1 94
2017-08-30 06:00:00 17.9 5 Noroeste 13 Noroeste 0 1003.6 -0.1 92
2017-08-30 05:00:00 18 0 Calma 13 Norte 0 1003.2 -1 92
2017-08-30 04:00:00 17.9 4 Norte 17 Norte 0 1003.4 -1.1 93
2017-08-30 03:00:00 18.4 10 Norte 18 Noroeste 0 1003.7 -1 91
2017-08-30 02:00:00 18 5 Norte 21 Norte 0 1004.2 -0.3 95
2017-08-30 01:00:00 17.9 11 Norte 18 Norte 0 1004.5 0.6 96
2017-08-30 00:00:00 18.1 6 Norte 17 Norte 0 1004.7 1.3 94
2017-08-29 23:00:00 18.6 8 Norte 21 Norte 0 1004.5 1 92
2017-08-29 22:00:00 19 6 Norte 13 Norte 0 1003.9 0.5 91
2017-08-29 21:00:00 18.8 7 Norte 18 Norte 0 1003.4 0.5 92
2017-08-29 20:00:00 18.4 11 Norte 37 Noroeste 0 1003.5 0.9 94
2017-08-29 19:00:00 19.2 20 Norte 41 Norte 0 1003.4 0.3 92
2017-08-29 18:00:00 19.6 21 Norte 39 Norte 0 1002.9 -0.5 92
2017-08-29 17:00:00 20.3 16 Norte 33 Norte 0 1002.6 -0.6 92
2017-08-29 16:00:00 20.2 11 Norte 22 Norte 0 1003.1 -0.3 93
2017-08-29 15:00:00 19.5 9 Norte 22 Norte 0 1003.4 0.1 97
2017-08-29 14:00:00 20.1 9 Norte 17 Norte 0.5 1003.2 0.1 96
2017-08-29 13:00:00 19.9 5 Norte 11 Norte 0.2 1003.4 0.2 97
2017-08-29 12:00:00 18.8 5 Norte 17 Norte 0 1003.3 0.2 98
2017-08-29 11:00:00 18.4 8 Norte 21 Norte 0.6 1003.1 0.9 98
2017-08-29 10:00:00 18.3 7 Norte 17 Norte 1.2 1003.2 1 97
2017-08-29 09:00:00 19 8 Norte 22 Norte 0 1003.1 0 94
2017-08-29 08:00:00 19.1 8 Norte 15 Norte 0 1002.2 -0.8 93
2017-08-29 07:00:00 18.7 0 Calma 17 Norte 0 1002.2 -0.6 94
2017-08-29 06:00:00 19 7 Norte 17 Norte 0 1003.1 0.2 93
2017-08-29 05:00:00 19.3 10 Norte 18 Norte 0 1003 -0.4 94
2017-08-29 04:00:00 19.6 2 Norte 8 Norte 0 1002.8 -0.8 90
2017-08-29 03:00:00 19.6 3 Noroeste 8 Norte 0 1002.9 -0.5 89
2017-08-29 02:00:00 19.2 3 Norte 11 Norte 0 1003.4 0.4 91
2017-08-29 01:00:00 19.5 2 Norte 8 Noroeste 0 1003.6 0.9 90
2017-08-29 00:00:00 19.4 2 Norte 8 Norte 0 1003.4 0.5 93
2017-08-28 23:00:00 19.6 3 Norte 11 Nordeste 0 1003 0.6 91
2017-08-28 22:00:00 20.2 4 Norte 8 Norte 0 1002.7 0.5 86
2017-08-28 21:00:00 20.4 5 Noroeste 17 Norte 0 1002.9 0.7 85
2017-08-28 20:00:00 20.5 9 Norte 32 Noroeste 0 1002.4 0.7 83
2017-08-28 19:00:00 20.6 19 Norte 35 Norte 0 1002.2 0.1 83
2017-08-28 18:00:00 22.1 17 Norte 30 Norte 0 1002.2 -0.1 76
2017-08-28 17:00:00 22.9 16 Norte 26 Norte 0 1001.7 -0.7 73
2017-08-28 16:00:00 22.5 15 Norte 26 Norte 0 1002.1 -0.6 73
2017-08-28 15:00:00 22.8 13 Norte 26 Norte 0 1002.3 -0.6 73
2017-08-28 14:00:00 21.8 13 Norte 28 Norte 0 1002.4 -1 73
2017-08-28 13:00:00 21.5 7 Norte 17 Norte 0 1002.7 0.3 71
2017-08-28 12:00:00 20.4 5 Nordeste 17 Norte 0 1002.9 0.6 75
2017-08-28 11:00:00 18.1 7 Norte 24 Norte 0 1003.4 1.5 87
2017-08-28 10:00:00 17.5 4 Este 17 Sudoeste 0 1002.4 0.3 95
2017-08-28 09:00:00 15.9 11 Sur 18 Este 0 1002.3 0.2 98
2017-08-28 08:00:00 16 13 Este 21 Este 0 1001.9 -0.2 98
2017-08-28 07:00:00 16.1 6 Este 17 Este 0 1002.1 0.1 98
2017-08-28 06:00:00 16.4 6 Sur 15 Sur 0 1002.1 0.2 98
2017-08-28 05:00:00 16.2 6 Sur 11 Sur 0 1002.1 0.3 98
2017-08-28 04:00:00 16.5 3 Sur 8 Sur 0 1002 -0.1 98
2017-08-28 03:00:00 16.3 6 Sur 11 Sur 0 1001.9 -0.1 97
2017-08-28 02:00:00 16.7 0 Calma 15 Sur 0 1001.8 0.3 96
2017-08-28 01:00:00 17.1 7 Sudeste 15 Sur 0 1002.1 0.1 95
2017-08-28 00:00:00 17.8 8 Sur 15 Sur 0 1002 1.6 96
2017-08-27 23:00:00 18.3 3 Norte 15 Noroeste 0 1001.5 0.4 94
2017-08-27 22:00:00 18.9 4 Noroeste 21 Sudeste 0 1002 1 85
2017-08-27 21:00:00 18.5 9 Sur 15 Sur 0.1 1000.4 -0.4 95
2017-08-27 20:00:00 18.3 20 Sur 32 Sur 2.2 1001.1 0.7 94
2017-08-27 19:00:00 19.1 15 Sudeste 26 Sur 5.6 1001 1.5 93
2017-08-27 18:00:00 19.5 8 Oeste 32 Norte 0 1000.8 1.1 87
2017-08-27 17:00:00 20.3 19 Noroeste 41 Noroeste 0 1000.4 0.4 81
2017-08-27 16:00:00 24.1 19 Noroeste 30 Noroeste 0 999.5 -0.5 61
2017-08-27 15:00:00 23.5 14 Norte 22 Norte 0 999.7 -0.7 65
2017-08-27 14:00:00 22.7 14 Norte 22 Norte 0 1000 -0.6 65
2017-08-27 13:00:00 24.3 9 Norte 17 Norte 0 1000 -0.3 58
2017-08-27 12:00:00 22.7 3 Oeste 5 Noroeste 0 1000.4 0.1 65
2017-08-27 11:00:00 19.7 2 Sudoeste 11 Sudeste 0 1000.6 0.7 73
2017-08-27 10:00:00 16.5 4 Este 8 Este 0 1000.3 1 86
2017-08-27 09:00:00 14.2 4 Sur 17 Sudeste 0 1000.3 0.9 93
2017-08-27 08:00:00 13.9 4 Sur 18 Sudeste 0 999.9 0.3 94
2017-08-27 07:00:00 14.2 6 Sur 17 Sudeste 0 999.3 -0.7 94
2017-08-27 06:00:00 14.8 5 Sur 11 Sur 0 999.4 -0.8 94
2017-08-27 05:00:00 15.3 5 Sur 15 Sur 0 999.6 -0.6 94
2017-08-27 04:00:00 16 4 Sur 11 Sur 0 1000 -0.5 91
2017-08-27 03:00:00 16.7 3 Sur 8 Sur 0 1000.2 -0.6 90
2017-08-27 02:00:00 17.9 2 Noroeste 5 Noroeste 0 1000.2 -0.3 88
2017-08-27 01:00:00 18.3 3 Sudeste 8 Sudeste 0 1000.5 0.6 85
2017-08-27 00:00:00 19.2 2 Oeste 8 Sudeste 0 1000.8 1 81
2017-08-26 23:00:00 20.2 2 Noroeste 8 Oeste 0 1000.5 0.7 76
2017-08-26 22:00:00 21.5 0 Calma 17 Norte 0 999.9 0 69
2017-08-26 21:00:00 23.1 6 Noroeste 21 Oeste 0 999.8 -0.2 63
2017-08-26 20:00:00 25.1 10 Noroeste 26 Noroeste 0 999.8 -0.3 53
2017-08-26 19:00:00 24.6 15 Noroeste 30 Noroeste 0 999.9 -0.6 58
2017-08-26 18:00:00 24.1 21 Norte 30 Norte 0 1000 -1.1 62
2017-08-26 17:00:00 24.5 12 Norte 22 Norte 0 1000.1 -1.6 61
2017-08-26 16:00:00 23.6 12 Norte 22 Norte 0 1000.5 -2 63
2017-08-26 15:00:00 23.4 14 Norte 22 Norte 0 1001.1 -1.3 62
2017-08-26 14:00:00 23.9 3 Sudeste 21 Este 0 1001.7 -0.4 61
2017-08-26 13:00:00 22.4 8 Sudeste 15 Sudeste 0 1002.5 0.1 65
2017-08-26 12:00:00 20.8 4 Sudoeste 24 Sudeste 0 1002.4 0.4 69
2017-08-26 11:00:00 18.4 6 Sudeste 22 Sudeste 0 1002.1 0.5 76
2017-08-26 10:00:00 16.4 3 Sudeste 15 Sur 0 1002.4 0.8 85
2017-08-26 09:00:00 16.2 5 Sur 15 Sur 0 1002 0.8 86
2017-08-26 08:00:00 15.8 6 Sur 13 Sur 0 1001.6 0.6 85
2017-08-26 07:00:00 15.7 3 Sur 18 Sudeste 0 1001.6 0 87
2017-08-26 06:00:00 15.6 2 Sur 9 Sur 0 1001.2 -1 87
2017-08-26 05:00:00 15.7 5 Sur 11 Sur 0 1001 -1.7 87
2017-08-26 04:00:00 16.1 5 Sudoeste 17 Sur 0 1001.6 -1.7 85
2017-08-26 03:00:00 16.2 4 Sur 13 Sur 0 1002.2 -1.4 84
2017-08-26 02:00:00 16.5 5 Sudeste 8 Sudeste 0 1002.7 -1.2 84
2017-08-26 01:00:00 17.3 6 Sudeste 11 Sudeste 0 1003.3 -0.3 79
2017-08-26 00:00:00 18.4 4 Sur 13 Sur 0 1003.6 0.2 73